Southern Angel — H8TU — position and weather

sailwx.info

Track history (hours):
 
Tides and Currents Weather Stations Pressure Air Temp Water Temp Dewpoint Dewpoint Depression Visibility Wind Speed Wind Dir Waves Ship Positions

Southern Angel

Last reported at 2017-Dec-16 12:30 UTC. Time now 2017-Dec-16 12:53 UTC.
Position N 34°51' E 139°21'.

Length 84 m; draft 5.5 m.

Type: Cargo ship. MMSI: 354587000.

Date/timePositionNaut miles runAvg speedWind from/ knotsBaromVisibWave heightAir tempDewpointWater temp
2017-Dec-16 12:30N 34°51' E 139°21'4 7.1
2017-Dec-16 11:59N 34°54' E 139°24'4 7.8
2017-Dec-16 11:27N 34°57' E 139°28'4 8.2
2017-Dec-16 11:01N 34°59' E 139°31'4 7.7
2017-Dec-16 10:31N 35°02' E 139°35'4 7.7
2017-Dec-16 10:00N 35°04' E 139°38'4 7.7
2017-Dec-16 09:30N 35°07' E 139°42'4 7.5
2017-Dec-16 09:00N 35°10' E 139°45'4 7.5
2017-Dec-16 08:31N 35°13' E 139°47'5 9.5
2017-Dec-16 08:00N 35°18' E 139°44'510.1
2017-Dec-16 07:30N 35°23' E 139°42'5 9.6
2017-Dec-16 07:00N 35°27' E 139°43'1 2.9
2017-Dec-16 06:30N 35°28' E 139°42'0 0.0
2017-Dec-16 06:00N 35°28' E 139°42'0 0.0
2017-Dec-16 05:30N 35°28' E 139°42'0 0.0
2017-Dec-16 04:58N 35°28' E 139°42'0 0.0
2017-Dec-16 04:28N 35°28' E 139°42'0 0.0
2017-Dec-16 03:55N 35°28' E 139°42'0 0.0
2017-Dec-16 03:28N 35°28' E 139°42'0 0.0
2017-Dec-16 02:58N 35°28' E 139°42'0 0.0
2017-Dec-16 02:28N 35°28' E 139°42'0 0.0
2017-Dec-16 01:58N 35°28' E 139°42'0 0.0
2017-Dec-16 01:28N 35°28' E 139°42'0 0.0
2017-Dec-16 00:58N 35°28' E 139°42'0 0.0
2017-Dec-16 00:28N 35°28' E 139°42'0 0.0
2017-Dec-15 23:58N 35°28' E 139°42'0 0.0
2017-Dec-15 23:28N 35°28' E 139°42'0 0.0
2017-Dec-15 22:58N 35°28' E 139°42'0 0.0
2017-Dec-15 22:28N 35°28' E 139°42'0 0.0
2017-Dec-15 21:58N 35°28' E 139°42'0 0.0
2017-Dec-15 21:28N 35°28' E 139°42'0 0.0
2017-Dec-15 20:58N 35°28' E 139°42'0 0.0
2017-Dec-15 20:28N 35°28' E 139°42'0 0.0
2017-Dec-15 20:01N 35°28' E 139°42'0 0.0
2017-Dec-15 19:28N 35°28' E 139°42'0 0.0
2017-Dec-15 19:01N 35°28' E 139°42'0 0.0
2017-Dec-15 18:30N 35°28' E 139°42'0 0.0
2017-Dec-15 18:00N 35°28' E 139°42'0 0.0
2017-Dec-15 17:31N 35°28' E 139°42'0 0.0
2017-Dec-15 17:00N 35°28' E 139°42'0 0.0
2017-Dec-15 16:30N 35°28' E 139°42'0 0.0
2017-Dec-15 16:00N 35°28' E 139°42'0 0.0
2017-Dec-15 15:30N 35°28' E 139°42'0 0.0
2017-Dec-15 15:00N 35°28' E 139°42'0 0.0
2017-Dec-15 14:27N 35°28' E 139°42'0 0.0
2017-Dec-15 14:00N 35°28' E 139°42'0 0.0
2017-Dec-15 13:30N 35°28' E 139°42'0 0.0
2017-Dec-15 13:00N 35°28' E 139°42'0 0.0
2017-Dec-15 12:30N 35°28' E 139°42'0 0.0
2017-Dec-15 12:00N 35°28' E 139°42'0 0.0
2017-Dec-15 11:30N 35°28' E 139°42'0 0.0
2017-Dec-15 11:00N 35°28' E 139°42'0 0.5
2017-Dec-15 10:30N 35°28' E 139°42'2 3.9
2017-Dec-15 10:01N 35°27' E 139°43'1 1.0
2017-Dec-15 09:30N 35°26' E 139°42'0 0.0
2017-Dec-15 09:00N 35°26' E 139°42'0 0.0
2017-Dec-15 08:30N 35°26' E 139°42'0 0.0
2017-Dec-15 08:00N 35°26' E 139°42'0 0.0
2017-Dec-15 07:30N 35°26' E 139°42'0 0.0
2017-Dec-15 07:00N 35°26' E 139°42'0 0.0
2017-Dec-15 06:31N 35°26' E 139°42'0 0.0
2017-Dec-15 06:00N 35°26' E 139°42'0 0.0
2017-Dec-15 05:31N 35°26' E 139°42'0 0.0
2017-Dec-15 05:00N 35°26' E 139°42'0 0.0
2017-Dec-15 04:30N 35°26' E 139°42'0 0.0
2017-Dec-15 04:01N 35°26' E 139°42'0 0.0
2017-Dec-15 02:30N 35°26' E 139°42'0 0.0
2017-Dec-15 01:00N 35°26' E 139°42'0 0.1
2017-Dec-15 00:30N 35°26' E 139°42'0 0.0
2017-Dec-14 18:31N 35°26' E 139°42'0 0.0
2017-Dec-14 18:00N 35°26' E 139°42'0 0.0
2017-Dec-14 17:30N 35°26' E 139°42'0 0.0
2017-Dec-14 17:00N 35°26' E 139°42'0 0.0
2017-Dec-14 16:31N 35°26' E 139°42'0 0.0
2017-Dec-14 16:00N 35°26' E 139°42'0 0.0
2017-Dec-14 15:00N 35°26' E 139°42'0 0.0
2017-Dec-14 14:30N 35°26' E 139°42'0 0.0
2017-Dec-14 14:01N 35°26' E 139°42'0 0.0
2017-Dec-14 13:30N 35°26' E 139°42'0 0.0
2017-Dec-14 13:00N 35°26' E 139°42'0 0.0
2017-Dec-14 12:30N 35°26' E 139°42'0 0.0
2017-Dec-14 12:01N 35°26' E 139°42'0 0.0
2017-Dec-14 11:30N 35°26' E 139°42'0 0.1
2017-Dec-14 11:00N 35°26' E 139°42'0 0.0
2017-Dec-14 10:30N 35°26' E 139°42'0 0.1
2017-Dec-14 10:01N 35°26' E 139°42'0 0.1
2017-Dec-14 09:30N 35°26' E 139°42'2 3.9
2017-Dec-14 09:00N 35°27' E 139°45'611.7
2017-Dec-14 08:30N 35°30' E 139°51'611.2
2017-Dec-14 08:00N 35°30' E 139°58'3 6.2
2017-Dec-14 07:30N 35°28' E 140°01'0 0.0
2017-Dec-14 07:00N 35°28' E 140°01'0 0.0
2017-Dec-14 06:30N 35°28' E 140°01'0 0.0
2017-Dec-14 06:00N 35°28' E 140°01'0 0.0
2017-Dec-14 05:30N 35°28' E 140°01'0 0.0
2017-Dec-14 05:00N 35°28' E 140°01'0 0.0
2017-Dec-14 04:30N 35°28' E 140°01'0 0.0
2017-Dec-14 04:00N 35°28' E 140°01'0 0.0
2017-Dec-14 03:30N 35°28' E 140°01'0 0.0
2017-Dec-14 03:00N 35°28' E 140°01'0 0.0
2017-Dec-14 02:30N 35°28' E 140°01'0 0.0
2017-Dec-14 02:01N 35°28' E 140°01'0 0.2
2017-Dec-14 01:31N 35°28' E 140°01'2 4.5
2017-Dec-14 01:01N 35°30' E 139°59'3 5.2
2017-Dec-14 00:31N 35°30' E 139°56'4 8.5
2017-Dec-14 00:00N 35°28' E 139°51'510.6
2017-Dec-13 23:30N 35°24' E 139°46'510.2
2017-Dec-13 23:00N 35°19' E 139°44'5 9.6
2017-Dec-13 22:30N 35°15' E 139°47'5 9.9
2017-Dec-13 22:00N 35°10' E 139°47'5 9.7
2017-Dec-13 21:30N 35°06' E 139°45'510.6
2017-Dec-13 21:00N 35°02' E 139°40'610.5
2017-Dec-13 20:28N 34°59' E 139°35'511.4
2017-Dec-13 19:59N 34°56' E 139°29'611.2
2017-Dec-13 19:29N 34°52' E 139°24'511.0
2017-Dec-13 19:00N 34°49' E 139°19'611.0
2017-Dec-13 18:28N 34°45' E 139°13'511.3
2017-Dec-13 18:00N 34°41' E 139°09'510.9
2017-Dec-13 17:30N 34°37' E 139°05'1 1.7
2017-Dec-13 17:00N 34°37' E 139°04'510.2
2017-Dec-13 16:31N 34°40' E 139°08'2 2.4
2017-Dec-13 15:50N 34°41' E 139°10'410.9
2017-Dec-13 15:29N 34°39' E 139°06'510.6
2017-Dec-13 15:01N 34°35' E 139°02'511.0
2017-Dec-13 14:31N 34°32' E 138°57'811.7
2017-Dec-13 13:49N 34°30' E 138°47'411.8
2017-Dec-13 13:30N 34°29' E 138°43'712.4
2017-Dec-13 12:54N 34°28' E 138°34'613.0
2017-Dec-13 12:27N 34°27' E 138°27'712.6
2017-Dec-13 11:55N 34°25' E 138°19'167 8.6
2017-Dec-12 16:30N 33°53' E 135°02'511.0
2017-Dec-12 16:01N 33°59' E 135°01'611.2
2017-Dec-12 15:31N 34°04' E 134°60'611.5
2017-Dec-12 15:00N 34°10' E 134°59'612.8
2017-Dec-12 14:30N 34°16' E 134°58'612.2
2017-Dec-12 14:00N 34°22' E 135°00'611.7
2017-Dec-12 13:31N 34°28' E 135°02'612.1
2017-Dec-12 13:01N 34°34' E 135°04'611.5
2017-Dec-12 12:31N 34°37' E 134°58'612.7
2017-Dec-12 12:01N 34°34' E 134°51'611.4
2017-Dec-12 11:31N 34°32' E 134°45'611.2
2017-Dec-12 11:00N 34°30' E 134°38'510.9
2017-Dec-12 10:30N 34°28' E 134°32'611.0
2017-Dec-12 10:00N 34°25' E 134°26'39 2.6
2017-Dec-11 19:12N 34°15' E 133°41'46 1.9
2017-Dec-10 19:06N 34°02' E 132°47'111.9
2017-Dec-10 19:00N 34°01' E 132°46'611.7
2017-Dec-10 18:31N 33°57' E 132°42'612.0
2017-Dec-10 18:00N 33°53' E 132°36'611.4
2017-Dec-10 17:28N 33°48' E 132°31'3111.7
2017-Dec-10 14:49N 33°26' E 132°05'511.8
2017-Dec-10 14:23N 33°23' E 132°01'410.3
2017-Dec-10 14:00N 33°19' E 131°59'510.5
2017-Dec-10 13:31N 33°14' E 132°02'  
2017-Dec-07 05:43N 25°34' E 121°46'2 9.4
2017-Dec-07 05:29N 25°32' E 121°44'4 9.3
2017-Dec-07 05:00N 25°30' E 121°40'5 9.2
2017-Dec-07 04:29N 25°27' E 121°35'5 8.5
2017-Dec-07 03:57N 25°25' E 121°31'3 7.5
2017-Dec-07 03:29N 25°23' E 121°28'3 6.5
2017-Dec-07 03:00N 25°21' E 121°25'3 6.9
2017-Dec-07 02:30N 25°19' E 121°22'4 7.0
2017-Dec-07 01:58N 25°17' E 121°19'3 7.3
2017-Dec-07 01:30N 25°15' E 121°15'4 7.5
2017-Dec-07 01:00N 25°13' E 121°12'4 7.6
2017-Dec-07 00:30N 25°11' E 121°08'4 8.6
2017-Dec-07 00:01N 25°08' E 121°05'5 8.6
2017-Dec-06 23:29N 25°05' E 121°01'12 9.4
2017-Dec-06 22:10N 24°55' E 120°53'  
Track history (hours):
 
Tides and Currents Weather Stations Pressure Air Temp Water Temp Dewpoint Dewpoint Depression Visibility Wind Speed Wind Dir Waves Ship Positions

Southern Angel

Last reported at 2017-Dec-16 12:30 UTC. Time now 2017-Dec-16 12:53 UTC.
Position N 34°51' E 139°21'.

Length 84 m; draft 5.5 m.

Type: Cargo ship. MMSI: 354587000.

Date/timePositionNaut miles runAvg speedWind from/ knotsBaromVisibWave heightAir tempDewpointWater temp
2017-Dec-16 12:30N 34°51' E 139°21'4 7.1
2017-Dec-16 11:59N 34°54' E 139°24'4 7.8
2017-Dec-16 11:27N 34°57' E 139°28'4 8.2
2017-Dec-16 11:01N 34°59' E 139°31'4 7.7
2017-Dec-16 10:31N 35°02' E 139°35'4 7.7
2017-Dec-16 10:00N 35°04' E 139°38'4 7.7
2017-Dec-16 09:30N 35°07' E 139°42'4 7.5
2017-Dec-16 09:00N 35°10' E 139°45'4 7.5
2017-Dec-16 08:31N 35°13' E 139°47'5 9.5
2017-Dec-16 08:00N 35°18' E 139°44'510.1
2017-Dec-16 07:30N 35°23' E 139°42'5 9.6
2017-Dec-16 07:00N 35°27' E 139°43'1 2.9
2017-Dec-16 06:30N 35°28' E 139°42'0 0.0
2017-Dec-16 06:00N 35°28' E 139°42'0 0.0
2017-Dec-16 05:30N 35°28' E 139°42'0 0.0
2017-Dec-16 04:58N 35°28' E 139°42'0 0.0
2017-Dec-16 04:28N 35°28' E 139°42'0 0.0
2017-Dec-16 03:55N 35°28' E 139°42'0 0.0
2017-Dec-16 03:28N 35°28' E 139°42'0 0.0
2017-Dec-16 02:58N 35°28' E 139°42'0 0.0
2017-Dec-16 02:28N 35°28' E 139°42'0 0.0
2017-Dec-16 01:58N 35°28' E 139°42'0 0.0
2017-Dec-16 01:28N 35°28' E 139°42'0 0.0
2017-Dec-16 00:58N 35°28' E 139°42'0 0.0
2017-Dec-16 00:28N 35°28' E 139°42'0 0.0
2017-Dec-15 23:58N 35°28' E 139°42'0 0.0
2017-Dec-15 23:28N 35°28' E 139°42'0 0.0
2017-Dec-15 22:58N 35°28' E 139°42'0 0.0
2017-Dec-15 22:28N 35°28' E 139°42'0 0.0
2017-Dec-15 21:58N 35°28' E 139°42'0 0.0
2017-Dec-15 21:28N 35°28' E 139°42'0 0.0
2017-Dec-15 20:58N 35°28' E 139°42'0 0.0
2017-Dec-15 20:28N 35°28' E 139°42'0 0.0
2017-Dec-15 20:01N 35°28' E 139°42'0 0.0
2017-Dec-15 19:28N 35°28' E 139°42'0 0.0
2017-Dec-15 19:01N 35°28' E 139°42'0 0.0
2017-Dec-15 18:30N 35°28' E 139°42'0 0.0
2017-Dec-15 18:00N 35°28' E 139°42'0 0.0
2017-Dec-15 17:31N 35°28' E 139°42'0 0.0
2017-Dec-15 17:00N 35°28' E 139°42'0 0.0
2017-Dec-15 16:30N 35°28' E 139°42'0 0.0
2017-Dec-15 16:00N 35°28' E 139°42'0 0.0
2017-Dec-15 15:30N 35°28' E 139°42'0 0.0
2017-Dec-15 15:00N 35°28' E 139°42'0 0.0
2017-Dec-15 14:27N 35°28' E 139°42'0 0.0
2017-Dec-15 14:00N 35°28' E 139°42'0 0.0
2017-Dec-15 13:30N 35°28' E 139°42'0 0.0
2017-Dec-15 13:00N 35°28' E 139°42'0 0.0
2017-Dec-15 12:30N 35°28' E 139°42'0 0.0
2017-Dec-15 12:00N 35°28' E 139°42'0 0.0
2017-Dec-15 11:30N 35°28' E 139°42'0 0.0
2017-Dec-15 11:00N 35°28' E 139°42'0 0.5
2017-Dec-15 10:30N 35°28' E 139°42'2 3.9
2017-Dec-15 10:01N 35°27' E 139°43'1 1.0
2017-Dec-15 09:30N 35°26' E 139°42'0 0.0
2017-Dec-15 09:00N 35°26' E 139°42'0 0.0
2017-Dec-15 08:30N 35°26' E 139°42'0 0.0
2017-Dec-15 08:00N 35°26' E 139°42'0 0.0
2017-Dec-15 07:30N 35°26' E 139°42'0 0.0
2017-Dec-15 07:00N 35°26' E 139°42'0 0.0
2017-Dec-15 06:31N 35°26' E 139°42'0 0.0
2017-Dec-15 06:00N 35°26' E 139°42'0 0.0
2017-Dec-15 05:31N 35°26' E 139°42'0 0.0
2017-Dec-15 05:00N 35°26' E 139°42'0 0.0
2017-Dec-15 04:30N 35°26' E 139°42'0 0.0
2017-Dec-15 04:01N 35°26' E 139°42'0 0.0
2017-Dec-15 02:30N 35°26' E 139°42'0 0.0
2017-Dec-15 01:00N 35°26' E 139°42'0 0.1
2017-Dec-15 00:30N 35°26' E 139°42'0 0.0
2017-Dec-14 18:31N 35°26' E 139°42'0 0.0
2017-Dec-14 18:00N 35°26' E 139°42'0 0.0
2017-Dec-14 17:30N 35°26' E 139°42'0 0.0
2017-Dec-14 17:00N 35°26' E 139°42'0 0.0
2017-Dec-14 16:31N 35°26' E 139°42'0 0.0
2017-Dec-14 16:00N 35°26' E 139°42'0 0.0
2017-Dec-14 15:00N 35°26' E 139°42'0 0.0
2017-Dec-14 14:30N 35°26' E 139°42'0 0.0
2017-Dec-14 14:01N 35°26' E 139°42'0 0.0
2017-Dec-14 13:30N 35°26' E 139°42'0 0.0
2017-Dec-14 13:00N 35°26' E 139°42'0 0.0
2017-Dec-14 12:30N 35°26' E 139°42'0 0.0
2017-Dec-14 12:01N 35°26' E 139°42'0 0.0
2017-Dec-14 11:30N 35°26' E 139°42'0 0.1
2017-Dec-14 11:00N 35°26' E 139°42'0 0.0
2017-Dec-14 10:30N 35°26' E 139°42'0 0.1
2017-Dec-14 10:01N 35°26' E 139°42'0 0.1
2017-Dec-14 09:30N 35°26' E 139°42'2 3.9
2017-Dec-14 09:00N 35°27' E 139°45'611.7
2017-Dec-14 08:30N 35°30' E 139°51'611.2
2017-Dec-14 08:00N 35°30' E 139°58'3 6.2
2017-Dec-14 07:30N 35°28' E 140°01'0 0.0
2017-Dec-14 07:00N 35°28' E 140°01'0 0.0
2017-Dec-14 06:30N 35°28' E 140°01'0 0.0
2017-Dec-14 06:00N 35°28' E 140°01'0 0.0
2017-Dec-14 05:30N 35°28' E 140°01'0 0.0
2017-Dec-14 05:00N 35°28' E 140°01'0 0.0
2017-Dec-14 04:30N 35°28' E 140°01'0 0.0
2017-Dec-14 04:00N 35°28' E 140°01'0 0.0
2017-Dec-14 03:30N 35°28' E 140°01'0 0.0
2017-Dec-14 03:00N 35°28' E 140°01'0 0.0
2017-Dec-14 02:30N 35°28' E 140°01'0 0.0
2017-Dec-14 02:01N 35°28' E 140°01'0 0.2
2017-Dec-14 01:31N 35°28' E 140°01'2 4.5
2017-Dec-14 01:01N 35°30' E 139°59'3 5.2
2017-Dec-14 00:31N 35°30' E 139°56'4 8.5
2017-Dec-14 00:00N 35°28' E 139°51'510.6
2017-Dec-13 23:30N 35°24' E 139°46'510.2
2017-Dec-13 23:00N 35°19' E 139°44'5 9.6
2017-Dec-13 22:30N 35°15' E 139°47'5 9.9
2017-Dec-13 22:00N 35°10' E 139°47'5 9.7
2017-Dec-13 21:30N 35°06' E 139°45'510.6
2017-Dec-13 21:00N 35°02' E 139°40'610.5
2017-Dec-13 20:28N 34°59' E 139°35'511.4
2017-Dec-13 19:59N 34°56' E 139°29'611.2
2017-Dec-13 19:29N 34°52' E 139°24'511.0
2017-Dec-13 19:00N 34°49' E 139°19'611.0
2017-Dec-13 18:28N 34°45' E 139°13'511.3
2017-Dec-13 18:00N 34°41' E 139°09'510.9
2017-Dec-13 17:30N 34°37' E 139°05'1 1.7
2017-Dec-13 17:00N 34°37' E 139°04'510.2
2017-Dec-13 16:31N 34°40' E 139°08'2 2.4
2017-Dec-13 15:50N 34°41' E 139°10'410.9
2017-Dec-13 15:29N 34°39' E 139°06'510.6
2017-Dec-13 15:01N 34°35' E 139°02'511.0
2017-Dec-13 14:31N 34°32' E 138°57'811.7
2017-Dec-13 13:49N 34°30' E 138°47'411.8
2017-Dec-13 13:30N 34°29' E 138°43'712.4
2017-Dec-13 12:54N 34°28' E 138°34'613.0
2017-Dec-13 12:27N 34°27' E 138°27'712.6
2017-Dec-13 11:55N 34°25' E 138°19'167 8.6
2017-Dec-12 16:30N 33°53' E 135°02'511.0
2017-Dec-12 16:01N 33°59' E 135°01'611.2
2017-Dec-12 15:31N 34°04' E 134°60'611.5
2017-Dec-12 15:00N 34°10' E 134°59'612.8
2017-Dec-12 14:30N 34°16' E 134°58'612.2
2017-Dec-12 14:00N 34°22' E 135°00'611.7
2017-Dec-12 13:31N 34°28' E 135°02'612.1
2017-Dec-12 13:01N 34°34' E 135°04'611.5
2017-Dec-12 12:31N 34°37' E 134°58'612.7
2017-Dec-12 12:01N 34°34' E 134°51'611.4
2017-Dec-12 11:31N 34°32' E 134°45'611.2
2017-Dec-12 11:00N 34°30' E 134°38'510.9
2017-Dec-12 10:30N 34°28' E 134°32'611.0
2017-Dec-12 10:00N 34°25' E 134°26'39 2.6
2017-Dec-11 19:12N 34°15' E 133°41'46 1.9
2017-Dec-10 19:06N 34°02' E 132°47'111.9
2017-Dec-10 19:00N 34°01' E 132°46'611.7
2017-Dec-10 18:31N 33°57' E 132°42'612.0
2017-Dec-10 18:00N 33°53' E 132°36'611.4
2017-Dec-10 17:28N 33°48' E 132°31'3111.7
2017-Dec-10 14:49N 33°26' E 132°05'511.8
2017-Dec-10 14:23N 33°23' E 132°01'410.3
2017-Dec-10 14:00N 33°19' E 131°59'510.5
2017-Dec-10 13:31N 33°14' E 132°02'  
2017-Dec-07 05:43N 25°34' E 121°46'2 9.4
2017-Dec-07 05:29N 25°32' E 121°44'4 9.3
2017-Dec-07 05:00N 25°30' E 121°40'5 9.2
2017-Dec-07 04:29N 25°27' E 121°35'5 8.5
2017-Dec-07 03:57N 25°25' E 121°31'3 7.5
2017-Dec-07 03:29N 25°23' E 121°28'3 6.5
2017-Dec-07 03:00N 25°21' E 121°25'3 6.9
2017-Dec-07 02:30N 25°19' E 121°22'4 7.0
2017-Dec-07 01:58N 25°17' E 121°19'3 7.3
2017-Dec-07 01:30N 25°15' E 121°15'4 7.5
2017-Dec-07 01:00N 25°13' E 121°12'4 7.6
2017-Dec-07 00:30N 25°11' E 121°08'4 8.6
2017-Dec-07 00:01N 25°08' E 121°05'5 8.6
2017-Dec-06 23:29N 25°05' E 121°01'12 9.4
2017-Dec-06 22:10N 24°55' E 120°53'  

Dump ship's entire track history